sensor_id;sensor_type;location;lat;lon;timestamp;pressure;altitude;pressure_sealevel;temperature;humidity
9717;BME280;4897;43.570;27.832;2022-11-12T00:01:42;100491.25;;;10.06;100.00
9717;BME280;4897;43.570;27.832;2022-11-12T00:04:08;100491.06;;;10.09;100.00
9717;BME280;4897;43.570;27.832;2022-11-12T00:06:35;100499.09;;;10.09;100.00
9717;BME280;4897;43.570;27.832;2022-11-12T00:09:02;100488.81;;;10.17;100.00
9717;BME280;4897;43.570;27.832;2022-11-12T00:11:29;100496.63;;;10.20;100.00
9717;BME280;4897;43.570;27.832;2022-11-12T00:13:56;100468.94;;;10.07;100.00
9717;BME280;4897;43.570;27.832;2022-11-12T00:16:23;100484.91;;;10.23;100.00
9717;BME280;4897;43.570;27.832;2022-11-12T00:18:51;100475.47;;;10.17;100.00
9717;BME280;4897;43.570;27.832;2022-11-12T00:21:18;100488.72;;;10.19;100.00
9717;BME280;4897;43.570;27.832;2022-11-12T00:23:45;100477.38;;;10.15;100.00
9717;BME280;4897;43.570;27.832;2022-11-12T00:26:12;100464.91;;;10.00;100.00
9717;BME280;4897;43.570;27.832;2022-11-12T00:28:39;100479.56;;;10.23;100.00
9717;BME280;4897;43.570;27.832;2022-11-12T00:31:07;100450.78;;;9.98;100.00
9717;BME280;4897;43.570;27.832;2022-11-12T00:33:38;100468.75;;;10.10;100.00
9717;BME280;4897;43.570;27.832;2022-11-12T00:36:09;100467.63;;;10.14;100.00
9717;BME280;4897;43.570;27.832;2022-11-12T00:38:36;100467.03;;;10.09;100.00
9717;BME280;4897;43.570;27.832;2022-11-12T00:41:03;100471.06;;;10.16;100.00
9717;BME280;4897;43.570;27.832;2022-11-12T00:43:30;100462.41;;;9.97;100.00
9717;BME280;4897;43.570;27.832;2022-11-12T00:45:57;100463.94;;;10.01;100.00
9717;BME280;4897;43.570;27.832;2022-11-12T00:48:24;100482.88;;;10.12;100.00
9717;BME280;4897;43.570;27.832;2022-11-12T00:50:58;100460.72;;;9.96;100.00
9717;BME280;4897;43.570;27.832;2022-11-12T00:53:26;100483.44;;;10.03;100.00
9717;BME280;4897;43.570;27.832;2022-11-12T00:55:59;100482.75;;;10.00;100.00
9717;BME280;4897;43.570;27.832;2022-11-12T00:58:27;100483.66;;;10.14;100.00
9717;BME280;4897;43.570;27.832;2022-11-12T01:00:54;100479.81;;;10.04;100.00
9717;BME280;4897;43.570;27.832;2022-11-12T01:03:21;100487.38;;;10.12;100.00
9717;BME280;4897;43.570;27.832;2022-11-12T01:05:48;100483.84;;;10.11;100.00
9717;BME280;4897;43.570;27.832;2022-11-12T01:08:15;100488.22;;;10.12;100.00
9717;BME280;4897;43.570;27.832;2022-11-12T01:10:43;100465.41;;;9.93;100.00
9717;BME280;4897;43.570;27.832;2022-11-12T01:13:10;100464.81;;;10.02;100.00
9717;BME280;4897;43.570;27.832;2022-11-12T01:15:39;100498.38;;;10.21;100.00
9717;BME280;4897;43.570;27.832;2022-11-12T01:18:07;100488.72;;;10.19;100.00
9717;BME280;4897;43.570;27.832;2022-11-12T01:20:36;100485.75;;;10.23;100.00
9717;BME280;4897;43.570;27.832;2022-11-12T01:23:03;100479.44;;;10.24;100.00
9717;BME280;4897;43.570;27.832;2022-11-12T01:25:30;100467.81;;;10.25;100.00
9717;BME280;4897;43.570;27.832;2022-11-12T01:27:58;100485.00;;;10.21;100.00
9717;BME280;4897;43.570;27.832;2022-11-12T01:30:25;100482.03;;;10.12;100.00
9717;BME280;4897;43.570;27.832;2022-11-12T01:32:52;100478.41;;;10.13;100.00
9717;BME280;4897;43.570;27.832;2022-11-12T01:35:19;100488.06;;;10.15;100.00
9717;BME280;4897;43.570;27.832;2022-11-12T01:37:46;100463.31;;;10.12;100.00
9717;BME280;4897;43.570;27.832;2022-11-12T01:40:12;100384.28;;;9.65;100.00
9717;BME280;4897;43.570;27.832;2022-11-12T01:42:39;100471.91;;;10.17;100.00
9717;BME280;4897;43.570;27.832;2022-11-12T01:45:13;100478.31;;;10.14;100.00
9717;BME280;4897;43.570;27.832;2022-11-12T01:47:41;100467.03;;;10.09;100.00
9717;BME280;4897;43.570;27.832;2022-11-12T01:50:14;100469.63;;;10.11;100.00
9717;BME280;4897;43.570;27.832;2022-11-12T01:52:44;100474.09;;;10.10;100.00
9717;BME280;4897;43.570;27.832;2022-11-12T01:55:19;100468.09;;;10.21;100.00
9717;BME280;4897;43.570;27.832;2022-11-12T01:57:50;100469.63;;;10.25;100.00
9717;BME280;4897;43.570;27.832;2022-11-12T02:00:20;100463.50;;;10.23;100.00
9717;BME280;4897;43.570;27.832;2022-11-12T02:02:52;100478.28;;;10.28;100.00
9717;BME280;4897;43.570;27.832;2022-11-12T02:05:21;100481.19;;;10.25;100.00
9717;BME280;4897;43.570;27.832;2022-11-12T02:07:49;100479.44;;;10.10;100.00
9717;BME280;4897;43.570;27.832;2022-11-12T02:10:17;100482.72;;;10.15;100.00
9717;BME280;4897;43.570;27.832;2022-11-12T02:12:44;100487.16;;;10.01;100.00
9717;BME280;4897;43.570;27.832;2022-11-12T02:15:30;100488.97;;;10.00;100.00
9717;BME280;4897;43.570;27.832;2022-11-12T02:17:58;100485.31;;;10.01;100.00
9717;BME280;4897;43.570;27.832;2022-11-12T02:20:25;100489.34;;;9.94;100.00
9717;BME280;4897;43.570;27.832;2022-11-12T02:22:53;100489.91;;;9.99;100.00
9717;BME280;4897;43.570;27.832;2022-11-12T02:25:23;100490.09;;;9.96;100.00
9717;BME280;4897;43.570;27.832;2022-11-12T02:27:51;100490.28;;;9.93;100.00
9717;BME280;4897;43.570;27.832;2022-11-12T02:30:30;100482.84;;;9.98;100.00
9717;BME280;4897;43.570;27.832;2022-11-12T02:32:57;100491.25;;;9.92;100.00
9717;BME280;4897;43.570;27.832;2022-11-12T02:35:24;100488.19;;;9.98;100.00
9717;BME280;4897;43.570;27.832;2022-11-12T02:37:52;100488.69;;;9.91;100.00
9717;BME280;4897;43.570;27.832;2022-11-12T02:40:19;100492.47;;;9.87;100.00
9717;BME280;4897;43.570;27.832;2022-11-12T02:42:46;100486.06;;;9.89;100.00
9717;BME280;4897;43.570;27.832;2022-11-12T02:45:13;100482.47;;;9.90;100.00
9717;BME280;4897;43.570;27.832;2022-11-12T02:47:40;100483.28;;;9.77;100.00
9717;BME280;4897;43.570;27.832;2022-11-12T02:50:08;100482.53;;;9.75;100.00
9717;BME280;4897;43.570;27.832;2022-11-12T02:52:35;100444.19;;;9.61;100.00
9717;BME280;4897;43.570;27.832;2022-11-12T02:55:06;100456.31;;;9.81;100.00
9717;BME280;4897;43.570;27.832;2022-11-12T02:57:33;100479.78;;;9.76;100.00
9717;BME280;4897;43.570;27.832;2022-11-12T03:00:01;100488.19;;;9.84;100.00
9717;BME280;4897;43.570;27.832;2022-11-12T03:02:27;100480.94;;;9.86;100.00
9717;BME280;4897;43.570;27.832;2022-11-12T03:04:54;100499.25;;;9.92;100.00
9717;BME280;4897;43.570;27.832;2022-11-12T03:07:21;100488.56;;;9.92;100.00
9717;BME280;4897;43.570;27.832;2022-11-12T03:09:48;100485.59;;;9.83;100.00
9717;BME280;4897;43.570;27.832;2022-11-12T03:12:16;100500.19;;;9.91;100.00
9717;BME280;4897;43.570;27.832;2022-11-12T03:14:43;100469.56;;;9.83;100.00
9717;BME280;4897;43.570;27.832;2022-11-12T03:17:10;100506.69;;;9.87;100.00
9717;BME280;4897;43.570;27.832;2022-11-12T03:19:37;100507.44;;;9.89;100.00
9717;BME280;4897;43.570;27.832;2022-11-12T03:22:04;100475.47;;;9.74;100.00
9717;BME280;4897;43.570;27.832;2022-11-12T03:24:30;100433.38;;;9.49;100.00
9717;BME280;4897;43.570;27.832;2022-11-12T03:26:57;100500.56;;;9.85;100.00
9717;BME280;4897;43.570;27.832;2022-11-12T03:29:26;100520.53;;;9.94;100.00
9717;BME280;4897;43.570;27.832;2022-11-12T03:31:53;100516.81;;;9.96;100.00
9717;BME280;4897;43.570;27.832;2022-11-12T03:34:20;100507.56;;;9.88;100.00
9717;BME280;4897;43.570;27.832;2022-11-12T03:36:46;100513.00;;;9.86;100.00
9717;BME280;4897;43.570;27.832;2022-11-12T03:39:13;100515.50;;;10.03;100.00
9717;BME280;4897;43.570;27.832;2022-11-12T03:41:40;100499.03;;;9.81;100.00
9717;BME280;4897;43.570;27.832;2022-11-12T03:44:07;100519.56;;;9.81;100.00
9717;BME280;4897;43.570;27.832;2022-11-12T03:46:35;100515.47;;;9.89;100.00
9717;BME280;4897;43.570;27.832;2022-11-12T03:49:02;100521.00;;;9.86;100.00
9717;BME280;4897;43.570;27.832;2022-11-12T03:51:29;100496.25;;;9.68;100.00
9717;BME280;4897;43.570;27.832;2022-11-12T03:53:56;100517.47;;;9.86;100.00
9717;BME280;4897;43.570;27.832;2022-11-12T03:56:23;100503.22;;;9.71;100.00
9717;BME280;4897;43.570;27.832;2022-11-12T03:58:50;100523.09;;;9.81;100.00
9717;BME280;4897;43.570;27.832;2022-11-12T04:01:16;100531.50;;;9.89;100.00
9717;BME280;4897;43.570;27.832;2022-11-12T04:03:45;100516.22;;;9.77;100.00
9717;BME280;4897;43.570;27.832;2022-11-12T04:06:12;100534.94;;;9.91;100.00
9717;BME280;4897;43.570;27.832;2022-11-12T04:08:56;100531.09;;;9.81;100.00
9717;BME280;4897;43.570;27.832;2022-11-12T04:11:23;100546.88;;;9.86;100.00
9717;BME280;4897;43.570;27.832;2022-11-12T04:13:50;100534.53;;;9.83;100.00
9717;BME280;4897;43.570;27.832;2022-11-12T04:16:18;100533.00;;;9.79;100.00
9717;BME280;4897;43.570;27.832;2022-11-12T04:19:04;100529.94;;;9.71;100.00
9717;BME280;4897;43.570;27.832;2022-11-12T04:21:50;100525.63;;;9.68;100.00
9717;BME280;4897;43.570;27.832;2022-11-12T04:24:22;100536.16;;;9.72;100.00
9717;BME280;4897;43.570;27.832;2022-11-12T04:27:08;100531.31;;;9.78;100.00
9717;BME280;4897;43.570;27.832;2022-11-12T04:29:35;100534.31;;;9.72;100.00
9717;BME280;4897;43.570;27.832;2022-11-12T04:32:20;100505.66;;;9.60;100.00
9717;BME280;4897;43.570;27.832;2022-11-12T04:34:48;100534.66;;;9.82;100.00
9717;BME280;4897;43.570;27.832;2022-11-12T04:37:16;100533.69;;;9.83;100.00
9717;BME280;4897;43.570;27.832;2022-11-12T04:39:43;100532.25;;;9.77;100.00
9717;BME280;4897;43.570;27.832;2022-11-12T04:42:10;100489.50;;;9.47;100.00
9717;BME280;4897;43.570;27.832;2022-11-12T04:44:55;100531.31;;;9.78;100.00
9717;BME280;4897;43.570;27.832;2022-11-12T04:47:33;100531.63;;;9.72;100.00
9717;BME280;4897;43.570;27.832;2022-11-12T04:50:05;100543.59;;;9.81;100.00
9717;BME280;4897;43.570;27.832;2022-11-12T04:52:32;100550.78;;;9.80;100.00
9717;BME280;4897;43.570;27.832;2022-11-12T04:54:59;100546.25;;;9.81;100.00
9717;BME280;4897;43.570;27.832;2022-11-12T04:57:26;100529.56;;;9.77;100.00
9717;BME280;4897;43.570;27.832;2022-11-12T04:59:53;100555.75;;;9.86;100.00
9717;BME280;4897;43.570;27.832;2022-11-12T05:02:20;100550.03;;;9.92;100.00
9717;BME280;4897;43.570;27.832;2022-11-12T05:04:47;100546.75;;;9.87;100.00
9717;BME280;4897;43.570;27.832;2022-11-12T05:07:17;100538.13;;;9.68;100.00
9717;BME280;4897;43.570;27.832;2022-11-12T05:09:44;100559.41;;;9.70;100.00
9717;BME280;4897;43.570;27.832;2022-11-12T05:12:11;100557.81;;;9.81;100.00
9717;BME280;4897;43.570;27.832;2022-11-12T05:14:37;100564.69;;;9.85;100.00
9717;BME280;4897;43.570;27.832;2022-11-12T05:17:05;100568.91;;;9.89;100.00
9717;BME280;4897;43.570;27.832;2022-11-12T05:19:34;100561.63;;;9.77;100.00
9717;BME280;4897;43.570;27.832;2022-11-12T05:22:01;100574.63;;;9.83;100.00
9717;BME280;4897;43.570;27.832;2022-11-12T05:24:35;100575.97;;;9.90;100.00
9717;BME280;4897;43.570;27.832;2022-11-12T05:27:03;100574.50;;;9.85;100.00
9717;BME280;4897;43.570;27.832;2022-11-12T05:29:33;100567.84;;;9.78;100.00
9717;BME280;4897;43.570;27.832;2022-11-12T05:32:00;100556.00;;;9.82;100.00
9717;BME280;4897;43.570;27.832;2022-11-12T05:34:27;100536.22;;;9.70;100.00
9717;BME280;4897;43.570;27.832;2022-11-12T05:36:54;100350.25;;;8.36;100.00
9717;BME280;4897;43.570;27.832;2022-11-12T05:39:23;100575.78;;;9.93;100.00
9717;BME280;4897;43.570;27.832;2022-11-12T05:41:52;100581.91;;;9.95;100.00
9717;BME280;4897;43.570;27.832;2022-11-12T05:44:21;100563.00;;;9.84;100.00
9717;BME280;4897;43.570;27.832;2022-11-12T05:46:48;100595.16;;;10.12;100.00
9717;BME280;4897;43.570;27.832;2022-11-12T05:49:16;100561.28;;;9.97;100.00
9717;BME280;4897;43.570;27.832;2022-11-12T05:51:43;100587.06;;;9.98;100.00
9717;BME280;4897;43.570;27.832;2022-11-12T05:54:11;100595.34;;;9.94;100.00
9717;BME280;4897;43.570;27.832;2022-11-12T05:56:38;100589.34;;;9.90;100.00
9717;BME280;4897;43.570;27.832;2022-11-12T05:59:08;100558.34;;;9.72;100.00
9717;BME280;4897;43.570;27.832;2022-11-12T06:01:36;100596.63;;;10.02;100.00
9717;BME280;4897;43.570;27.832;2022-11-12T06:04:09;100592.03;;;10.04;100.00
9717;BME280;4897;43.570;27.832;2022-11-12T06:06:36;100603.75;;;10.17;100.00
9717;BME280;4897;43.570;27.832;2022-11-12T06:09:03;100590.03;;;10.23;100.00
9717;BME280;4897;43.570;27.832;2022-11-12T06:11:30;100598.59;;;10.28;100.00
9717;BME280;4897;43.570;27.832;2022-11-12T06:13:59;100600.06;;;10.20;100.00
9717;BME280;4897;43.570;27.832;2022-11-12T06:16:28;100603.00;;;10.29;100.00
9717;BME280;4897;43.570;27.832;2022-11-12T06:18:55;100602.63;;;10.35;100.00
9717;BME280;4897;43.570;27.832;2022-11-12T06:21:22;100590.13;;;10.22;100.00
9717;BME280;4897;43.570;27.832;2022-11-12T06:23:53;100604.38;;;10.36;100.00
9717;BME280;4897;43.570;27.832;2022-11-12T06:26:21;100605.69;;;10.43;100.00
9717;BME280;4897;43.570;27.832;2022-11-12T06:28:49;100610.66;;;10.50;100.00
9717;BME280;4897;43.570;27.832;2022-11-12T06:31:16;100583.66;;;10.54;100.00
9717;BME280;4897;43.570;27.832;2022-11-12T06:33:45;100590.25;;;10.63;100.00
9717;BME280;4897;43.570;27.832;2022-11-12T06:36:14;100591.00;;;10.65;100.00
9717;BME280;4897;43.570;27.832;2022-11-12T06:38:41;100594.66;;;10.64;100.00
9717;BME280;4897;43.570;27.832;2022-11-12T06:41:10;100603.13;;;10.70;100.00
9717;BME280;4897;43.570;27.832;2022-11-12T06:43:37;100608.59;;;10.55;100.00
9717;BME280;4897;43.570;27.832;2022-11-12T06:46:05;100607.63;;;10.56;100.00
9717;BME280;4897;43.570;27.832;2022-11-12T06:48:32;100603.81;;;10.60;100.00
9717;BME280;4897;43.570;27.832;2022-11-12T06:51:07;100604.47;;;10.49;100.00
9717;BME280;4897;43.570;27.832;2022-11-12T06:53:34;100599.22;;;10.48;100.00
9717;BME280;4897;43.570;27.832;2022-11-12T06:56:01;100610.88;;;10.47;100.00
9717;BME280;4897;43.570;27.832;2022-11-12T06:58:28;100616.88;;;10.50;100.00
9717;BME280;4897;43.570;27.832;2022-11-12T07:00:55;100597.41;;;10.48;100.00
9717;BME280;4897;43.570;27.832;2022-11-12T07:03:22;100600.84;;;10.50;100.00
9717;BME280;4897;43.570;27.832;2022-11-12T07:05:49;100572.19;;;10.38;100.00
9717;BME280;4897;43.570;27.832;2022-11-12T07:08:17;100605.16;;;10.53;100.00
9717;BME280;4897;43.570;27.832;2022-11-12T07:10:44;100606.09;;;10.52;100.00
9717;BME280;4897;43.570;27.832;2022-11-12T07:13:11;100618.91;;;10.61;100.00
9717;BME280;4897;43.570;27.832;2022-11-12T07:15:38;100610.28;;;10.56;100.00
9717;BME280;4897;43.570;27.832;2022-11-12T07:18:05;100603.50;;;10.50;100.00
9717;BME280;4897;43.570;27.832;2022-11-12T07:20:32;100608.09;;;10.48;100.00
9717;BME280;4897;43.570;27.832;2022-11-12T07:22:59;100614.22;;;10.50;100.00
9717;BME280;4897;43.570;27.832;2022-11-12T07:25:28;100606.56;;;10.44;100.00
9717;BME280;4897;43.570;27.832;2022-11-12T07:27:55;100608.47;;;10.42;100.00
9717;BME280;4897;43.570;27.832;2022-11-12T07:30:21;100607.03;;;10.36;100.00
9717;BME280;4897;43.570;27.832;2022-11-12T07:32:48;100615.94;;;10.51;100.00
9717;BME280;4897;43.570;27.832;2022-11-12T07:35:15;100573.00;;;10.24;100.00
9717;BME280;4897;43.570;27.832;2022-11-12T07:37:42;100616.50;;;10.56;100.00
9717;BME280;4897;43.570;27.832;2022-11-12T07:40:12;100614.97;;;10.52;100.00
9717;BME280;4897;43.570;27.832;2022-11-12T07:42:43;100607.81;;;10.53;100.00
9717;BME280;4897;43.570;27.832;2022-11-12T07:45:10;100609.53;;;10.54;100.00
9717;BME280;4897;43.570;27.832;2022-11-12T07:47:37;100618.50;;;10.67;100.00
9717;BME280;4897;43.570;27.832;2022-11-12T07:50:05;100611.06;;;10.58;100.00
9717;BME280;4897;43.570;27.832;2022-11-12T07:52:32;100618.72;;;10.64;100.00
9717;BME280;4897;43.570;27.832;2022-11-12T07:54:59;100620.44;;;10.65;100.00
9717;BME280;4897;43.570;27.832;2022-11-12T07:57:25;100626.81;;;10.62;100.00
9717;BME280;4897;43.570;27.832;2022-11-12T07:59:54;100627.69;;;10.63;100.00
9717;BME280;4897;43.570;27.832;2022-11-12T08:02:20;100637.34;;;10.65;100.00
9717;BME280;4897;43.570;27.832;2022-11-12T08:04:47;100633.25;;;10.60;100.00
9717;BME280;4897;43.570;27.832;2022-11-12T08:07:14;100642.41;;;10.70;100.00
9717;BME280;4897;43.570;27.832;2022-11-12T08:09:42;100638.59;;;10.74;100.00
9717;BME280;4897;43.570;27.832;2022-11-12T08:12:09;100591.88;;;10.51;100.00
9717;BME280;4897;43.570;27.832;2022-11-12T08:14:36;100619.09;;;10.86;100.00
9717;BME280;4897;43.570;27.832;2022-11-12T08:17:04;100557.00;;;10.53;100.00
9717;BME280;4897;43.570;27.832;2022-11-12T08:19:31;100637.13;;;11.10;100.00
9717;BME280;4897;43.570;27.832;2022-11-12T08:21:58;100640.88;;;11.22;100.00
9717;BME280;4897;43.570;27.832;2022-11-12T08:24:25;100641.41;;;11.27;100.00
9717;BME280;4897;43.570;27.832;2022-11-12T08:26:52;100631.34;;;11.31;100.00
9717;BME280;4897;43.570;27.832;2022-11-12T08:29:22;100650.97;;;11.45;100.00
9717;BME280;4897;43.570;27.832;2022-11-12T08:31:49;100638.34;;;11.47;100.00
9717;BME280;4897;43.570;27.832;2022-11-12T08:34:18;100637.75;;;11.42;100.00
9717;BME280;4897;43.570;27.832;2022-11-12T08:36:45;100648.56;;;11.41;100.00
9717;BME280;4897;43.570;27.832;2022-11-12T08:39:12;100658.25;;;11.29;100.00
9717;BME280;4897;43.570;27.832;2022-11-12T08:41:38;100660.44;;;11.22;100.00
9717;BME280;4897;43.570;27.832;2022-11-12T08:44:05;100654.03;;;11.25;100.00
9717;BME280;4897;43.570;27.832;2022-11-12T08:46:32;100646.47;;;11.32;100.00
9717;BME280;4897;43.570;27.832;2022-11-12T08:48:59;100644.91;;;11.42;100.00
9717;BME280;4897;43.570;27.832;2022-11-12T08:51:27;100631.06;;;11.49;100.00
9717;BME280;4897;43.570;27.832;2022-11-12T08:53:54;100644.97;;;11.68;100.00
9717;BME280;4897;43.570;27.832;2022-11-12T08:56:21;100639.34;;;11.85;100.00
9717;BME280;4897;43.570;27.832;2022-11-12T08:58:48;100639.66;;;12.08;100.00
9717;BME280;4897;43.570;27.832;2022-11-12T09:01:15;100643.44;;;12.18;100.00
9717;BME280;4897;43.570;27.832;2022-11-12T09:03:42;100635.19;;;12.33;100.00
9717;BME280;4897;43.570;27.832;2022-11-12T09:06:09;100632.09;;;12.52;100.00
9717;BME280;4897;43.570;27.832;2022-11-12T09:08:37;100628.88;;;12.59;100.00
9717;BME280;4897;43.570;27.832;2022-11-12T09:11:05;100637.88;;;12.71;100.00
9717;BME280;4897;43.570;27.832;2022-11-12T09:13:32;100632.75;;;12.80;100.00
9717;BME280;4897;43.570;27.832;2022-11-12T09:16:01;100616.53;;;12.82;100.00
9717;BME280;4897;43.570;27.832;2022-11-12T09:18:29;100621.03;;;12.94;100.00
9717;BME280;4897;43.570;27.832;2022-11-12T09:21:01;100615.94;;;13.27;100.00
9717;BME280;4897;43.570;27.832;2022-11-12T09:23:30;100612.63;;;13.60;100.00
9717;BME280;4897;43.570;27.832;2022-11-12T09:26:00;100612.13;;;13.90;100.00
9717;BME280;4897;43.570;27.832;2022-11-12T09:28:27;100584.53;;;13.99;100.00
9717;BME280;4897;43.570;27.832;2022-11-12T09:30:54;100599.38;;;14.50;100.00
9717;BME280;4897;43.570;27.832;2022-11-12T09:33:22;100603.22;;;14.92;100.00
9717;BME280;4897;43.570;27.832;2022-11-12T09:35:50;100586.94;;;14.82;100.00
9717;BME280;4897;43.570;27.832;2022-11-12T09:38:22;100579.56;;;15.17;100.00
9717;BME280;4897;43.570;27.832;2022-11-12T09:41:20;100581.41;;;15.71;100.00
9717;BME280;4897;43.570;27.832;2022-11-12T09:43:50;100582.44;;;15.90;100.00
9717;BME280;4897;43.570;27.832;2022-11-12T09:46:30;100580.13;;;15.86;100.00
9717;BME280;4897;43.570;27.832;2022-11-12T09:49:05;100565.81;;;15.32;100.00
9717;BME280;4897;43.570;27.832;2022-11-12T09:51:38;100588.09;;;15.34;100.00
9717;BME280;4897;43.570;27.832;2022-11-12T09:54:16;100600.41;;;14.93;100.00
9717;BME280;4897;43.570;27.832;2022-11-12T09:56:47;100605.28;;;14.88;100.00
9717;BME280;4897;43.570;27.832;2022-11-12T09:59:15;100575.94;;;14.74;100.00
9717;BME280;4897;43.570;27.832;2022-11-12T10:02:01;100602.59;;;14.88;100.00
9717;BME280;4897;43.570;27.832;2022-11-12T10:04:54;100612.03;;;14.94;100.00
9717;BME280;4897;43.570;27.832;2022-11-12T10:07:31;100596.97;;;14.80;100.00
9717;BME280;4897;43.570;27.832;2022-11-12T10:10:09;100607.72;;;14.58;100.00
9717;BME280;4897;43.570;27.832;2022-11-12T10:12:49;100623.59;;;14.50;100.00
9717;BME280;4897;43.570;27.832;2022-11-12T10:15:39;100613.78;;;14.38;100.00
9717;BME280;4897;43.570;27.832;2022-11-12T10:18:30;100624.94;;;14.45;100.00
9717;BME280;4897;43.570;27.832;2022-11-12T10:21:05;100618.91;;;14.30;100.00
9717;BME280;4897;43.570;27.832;2022-11-12T10:23:40;100623.81;;;14.12;100.00
9717;BME280;4897;43.570;27.832;2022-11-12T10:26:13;100615.88;;;14.11;100.00
9717;BME280;4897;43.570;27.832;2022-11-12T10:28:45;100634.50;;;14.25;100.00
9717;BME280;4897;43.570;27.832;2022-11-12T10:31:14;100629.50;;;14.20;100.00
9717;BME280;4897;43.570;27.832;2022-11-12T10:33:42;100550.00;;;13.82;100.00
9717;BME280;4897;43.570;27.832;2022-11-12T10:36:24;100625.16;;;14.41;100.00
9717;BME280;4897;43.570;27.832;2022-11-12T10:38:54;100625.59;;;14.59;100.00
9717;BME280;4897;43.570;27.832;2022-11-12T10:41:24;100632.47;;;14.96;100.00
9717;BME280;4897;43.570;27.832;2022-11-12T10:43:57;100630.25;;;15.23;100.00
9717;BME280;4897;43.570;27.832;2022-11-12T10:46:26;100613.34;;;15.33;100.00
9717;BME280;4897;43.570;27.832;2022-11-12T10:48:57;100633.56;;;15.38;100.00
9717;BME280;4897;43.570;27.832;2022-11-12T10:51:29;100627.78;;;15.65;100.00
9717;BME280;4897;43.570;27.832;2022-11-12T10:53:56;100607.53;;;16.02;100.00
9717;BME280;4897;43.570;27.832;2022-11-12T10:56:26;100610.50;;;15.99;100.00
9717;BME280;4897;43.570;27.832;2022-11-12T10:59:15;100623.06;;;15.89;100.00
9717;BME280;4897;43.570;27.832;2022-11-12T11:01:42;100628.25;;;15.70;100.00
9717;BME280;4897;43.570;27.832;2022-11-12T11:04:21;100619.72;;;15.32;100.00
9717;BME280;4897;43.570;27.832;2022-11-12T11:06:57;100624.88;;;14.79;100.00
9717;BME280;4897;43.570;27.832;2022-11-12T11:09:25;100629.63;;;14.54;100.00
9717;BME280;4897;43.570;27.832;2022-11-12T11:11:53;100641.72;;;14.48;100.00
9717;BME280;4897;43.570;27.832;2022-11-12T11:14:27;100605.53;;;13.94;100.00
9717;BME280;4897;43.570;27.832;2022-11-12T11:16:57;100607.97;;;13.86;100.00
9717;BME280;4897;43.570;27.832;2022-11-12T11:19:32;100616.09;;;13.49;100.00
9717;BME280;4897;43.570;27.832;2022-11-12T11:22:16;100628.91;;;13.70;100.00
9717;BME280;4897;43.570;27.832;2022-11-12T11:24:58;100633.53;;;13.68;100.00
9717;BME280;4897;43.570;27.832;2022-11-12T11:27:37;100636.56;;;13.63;100.00
9717;BME280;4897;43.570;27.832;2022-11-12T11:30:12;100625.41;;;13.33;100.00
9717;BME280;4897;43.570;27.832;2022-11-12T11:35:52;100648.63;;;13.21;100.00
9717;BME280;4897;43.570;27.832;2022-11-12T11:38:37;100639.06;;;13.17;100.00
9717;BME280;4897;43.570;27.832;2022-11-12T11:41:24;100640.97;;;13.28;100.00
9717;BME280;4897;43.570;27.832;2022-11-12T11:44:03;100623.91;;;13.16;100.00
9717;BME280;4897;43.570;27.832;2022-11-12T11:46:56;100637.44;;;13.27;100.00
9717;BME280;4897;43.570;27.832;2022-11-12T11:52:31;100634.28;;;13.33;100.00
9717;BME280;4897;43.570;27.832;2022-11-12T11:55:19;100633.47;;;13.33;100.00
9717;BME280;4897;43.570;27.832;2022-11-12T11:57:56;100616.69;;;13.29;100.00
9717;BME280;4897;43.570;27.832;2022-11-12T12:00:29;100639.00;;;13.42;100.00
9717;BME280;4897;43.570;27.832;2022-11-12T12:03:20;100634.50;;;13.43;100.00
9717;BME280;4897;43.570;27.832;2022-11-12T12:06:08;100626.31;;;13.44;100.00
9717;BME280;4897;43.570;27.832;2022-11-12T12:08:51;100645.81;;;13.59;100.00
9717;BME280;4897;43.570;27.832;2022-11-12T12:11:24;100639.53;;;13.47;100.00
9717;BME280;4897;43.570;27.832;2022-11-12T12:14:08;100637.16;;;13.55;100.00
9717;BME280;4897;43.570;27.832;2022-11-12T12:16:45;100640.13;;;13.63;100.00
9717;BME280;4897;43.570;27.832;2022-11-12T12:19:27;100638.34;;;13.51;100.00
9717;BME280;4897;43.570;27.832;2022-11-12T12:21:59;100619.00;;;13.46;100.00
9717;BME280;4897;43.570;27.832;2022-11-12T12:24:30;100635.69;;;13.62;100.00
9717;BME280;4897;43.570;27.832;2022-11-12T12:27:03;100638.47;;;13.74;100.00
9717;BME280;4897;43.570;27.832;2022-11-12T12:29:39;100607.56;;;13.55;100.00
9717;BME280;4897;43.570;27.832;2022-11-12T12:32:12;100626.97;;;13.72;100.00
9717;BME280;4897;43.570;27.832;2022-11-12T12:34:44;100595.38;;;13.62;100.00
9717;BME280;4897;43.570;27.832;2022-11-12T12:37:20;100645.09;;;13.81;100.00
9717;BME280;4897;43.570;27.832;2022-11-12T12:39:52;100632.13;;;13.75;100.00
9717;BME280;4897;43.570;27.832;2022-11-12T12:42:25;100631.19;;;13.63;100.00
9717;BME280;4897;43.570;27.832;2022-11-12T12:44:55;100612.53;;;13.49;100.00
9717;BME280;4897;43.570;27.832;2022-11-12T12:47:27;100641.34;;;13.71;100.00
9717;BME280;4897;43.570;27.832;2022-11-12T12:49:58;100641.03;;;13.75;100.00
9717;BME280;4897;43.570;27.832;2022-11-12T12:52:26;100638.47;;;13.74;100.00
9717;BME280;4897;43.570;27.832;2022-11-12T12:54:56;100641.28;;;13.72;100.00
9717;BME280;4897;43.570;27.832;2022-11-12T12:57:29;100621.75;;;13.57;100.00
9717;BME280;4897;43.570;27.832;2022-11-12T13:00:25;100644.97;;;13.58;100.00
9717;BME280;4897;43.570;27.832;2022-11-12T13:02:53;100645.81;;;13.59;100.00
9717;BME280;4897;43.570;27.832;2022-11-12T13:05:26;100647.16;;;13.53;100.00
9717;BME280;4897;43.570;27.832;2022-11-12T13:07:57;100654.44;;;13.64;100.00
9717;BME280;4897;43.570;27.832;2022-11-12T13:10:52;100648.84;;;13.54;100.00
9717;BME280;4897;43.570;27.832;2022-11-12T13:13:31;100651.75;;;13.64;100.00
9717;BME280;4897;43.570;27.832;2022-11-12T13:16:00;100622.97;;;13.53;100.00